createdAt,value
2023-04-18T00:00:41.739Z,1054.00
2023-04-18T00:01:41.835Z,1054.00
2023-04-18T00:02:41.982Z,1053.00
2023-04-18T00:03:42.108Z,1054.00
2023-04-18T00:04:42.026Z,1054.00
2023-04-18T00:05:42.055Z,1055.00
2023-04-18T00:06:42.124Z,1053.00
2023-04-18T00:07:42.184Z,1052.00
2023-04-18T00:08:42.248Z,1050.00
2023-04-18T00:09:42.331Z,1047.00
2023-04-18T00:10:42.448Z,1047.00
2023-04-18T00:11:42.444Z,1046.00
2023-04-18T00:12:42.497Z,1048.00
2023-04-18T00:13:42.559Z,1049.00
2023-04-18T00:14:42.627Z,1052.00
2023-04-18T00:15:42.689Z,1052.00
2023-04-18T00:16:42.769Z,1052.00
2023-04-18T00:17:42.848Z,1052.00
2023-04-18T00:18:42.876Z,1050.00
2023-04-18T00:19:42.947Z,1048.00
2023-04-18T00:20:43.011Z,1049.00
2023-04-18T00:21:43.070Z,1051.00
2023-04-18T00:22:43.137Z,1051.00
2023-04-18T00:23:43.247Z,1050.00
2023-04-18T00:24:43.275Z,1048.00
2023-04-18T00:25:43.339Z,1047.00
2023-04-18T00:26:43.402Z,1046.00
2023-04-18T00:27:43.464Z,1048.00
2023-04-18T00:28:43.531Z,1047.00
2023-04-18T00:29:43.598Z,1045.00
2023-04-18T00:30:43.701Z,1042.00
2023-04-18T00:31:43.727Z,1044.00
2023-04-18T00:32:43.874Z,1046.00
2023-04-18T00:33:43.858Z,1045.00
2023-04-18T00:34:43.934Z,1045.00
2023-04-18T00:35:44.004Z,1041.00
2023-04-18T00:36:44.068Z,1040.00
2023-04-18T00:37:44.143Z,1043.00
2023-04-18T00:38:44.211Z,1045.00
2023-04-18T00:39:45.039Z,1043.00
2023-04-18T00:40:44.389Z,1043.00
2023-04-18T00:41:44.416Z,1042.00
2023-04-18T00:42:44.481Z,1037.00
2023-04-18T00:43:44.563Z,1040.00
2023-04-18T00:44:44.617Z,1042.00
2023-04-18T00:45:44.729Z,1041.00
2023-04-18T00:46:44.749Z,1038.00
2023-04-18T00:47:44.880Z,1032.00
2023-04-18T00:48:44.875Z,1031.00
2023-04-18T00:49:44.938Z,1030.00
2023-04-18T00:50:45.003Z,1031.00
2023-04-18T00:51:45.079Z,1031.00
2023-04-18T00:52:45.148Z,1027.00
2023-04-18T00:53:45.210Z,1028.00
2023-04-18T00:54:45.269Z,1030.00
2023-04-18T00:55:45.350Z,1030.00
2023-04-18T00:56:45.407Z,1033.00
2023-04-18T00:57:45.480Z,1033.00
2023-04-18T00:58:45.556Z,1033.00
2023-04-18T00:59:45.608Z,1032.00
2023-04-18T01:00:45.691Z,1033.00
2023-04-18T01:01:45.780Z,1032.00
2023-04-18T01:02:45.885Z,1030.00
2023-04-18T01:03:45.988Z,1029.00
2023-04-18T01:04:45.953Z,1027.00
2023-04-18T01:05:46.021Z,1026.00
2023-04-18T01:06:46.098Z,1023.00
2023-04-18T01:07:46.161Z,1023.00
2023-04-18T01:08:46.229Z,1022.00
2023-04-18T01:09:46.301Z,1023.00
2023-04-18T01:10:46.370Z,1020.00
2023-04-18T01:11:46.431Z,1022.00
2023-04-18T01:12:46.545Z,1022.00
2023-04-18T01:13:46.567Z,1024.00
2023-04-18T01:14:46.645Z,1024.00
2023-04-18T01:15:46.753Z,1023.00
2023-04-18T01:16:46.774Z,1022.00
2023-04-18T01:17:46.895Z,1022.00
2023-04-18T01:18:46.909Z,1023.00
2023-04-18T01:19:46.973Z,1024.00
2023-04-18T01:20:47.045Z,1024.00
2023-04-18T01:21:47.109Z,1026.00
2023-04-18T01:22:47.175Z,1026.00
2023-04-18T01:23:47.244Z,1026.00
2023-04-18T01:24:47.324Z,1026.00
2023-04-18T01:25:47.418Z,1028.00
2023-04-18T01:26:47.463Z,1028.00
2023-04-18T01:27:47.512Z,1026.00
2023-04-18T01:28:47.587Z,1025.00
2023-04-18T01:29:47.644Z,1024.00
2023-04-18T01:30:47.713Z,1025.00
2023-04-18T01:31:47.800Z,1027.00
2023-04-18T01:32:47.918Z,1026.00
2023-04-18T01:33:47.921Z,1024.00
2023-04-18T01:34:47.993Z,1018.00
2023-04-18T01:35:48.078Z,1018.00
2023-04-18T01:36:48.135Z,1017.00
2023-04-18T01:37:48.207Z,1019.00
2023-04-18T01:38:48.274Z,1021.00
2023-04-18T01:39:48.352Z,1022.00
2023-04-18T01:40:48.421Z,1023.00
2023-04-18T01:41:48.487Z,1023.00
2023-04-18T01:42:48.563Z,1021.00
2023-04-18T01:43:48.627Z,1020.00
2023-04-18T01:44:48.687Z,1020.00
2023-04-18T01:45:48.753Z,1017.00
2023-04-18T01:46:48.876Z,1015.00
2023-04-18T01:47:48.976Z,1016.00
2023-04-18T01:48:48.977Z,1014.00
2023-04-18T01:49:49.047Z,1013.00
2023-04-18T01:50:49.102Z,1015.00
2023-04-18T01:51:49.176Z,1015.00
2023-04-18T01:52:49.249Z,1015.00
2023-04-18T01:53:49.319Z,1010.00
2023-04-18T01:54:49.390Z,1013.00
2023-04-18T01:55:49.475Z,1012.00
2023-04-18T01:56:49.532Z,1011.00
2023-04-18T01:57:49.600Z,1009.00
2023-04-18T01:58:49.666Z,1010.00
2023-04-18T01:59:49.742Z,1011.00
2023-04-18T02:00:50.588Z,1009.00
2023-04-18T02:01:49.902Z,1008.00
2023-04-18T02:02:49.998Z,1007.00
2023-04-18T02:03:50.187Z,1008.00
2023-04-18T02:04:50.076Z,1006.00
2023-04-18T02:05:50.144Z,1007.00
2023-04-18T02:06:50.220Z,1006.00
2023-04-18T02:07:50.353Z,1006.00
2023-04-18T02:08:50.358Z,1007.00
2023-04-18T02:09:50.430Z,1005.00
2023-04-18T02:10:50.500Z,1002.00
2023-04-18T02:11:50.571Z,1001.00
2023-04-18T02:12:50.644Z,1001.00
2023-04-18T02:13:50.718Z,1000.00
2023-04-18T02:14:50.792Z,1002.00
2023-04-18T02:15:50.872Z,1005.00
2023-04-18T02:16:51.073Z,1004.00
2023-04-18T02:17:51.021Z,1003.00
2023-04-18T02:18:51.077Z,1003.00
2023-04-18T02:19:51.149Z,1002.00
2023-04-18T02:20:51.232Z,1004.00
2023-04-18T02:21:51.302Z,1003.00
2023-04-18T02:22:51.373Z,999.00
2023-04-18T02:23:51.436Z,1000.00
2023-04-18T02:24:51.515Z,1004.00
2023-04-18T02:25:51.586Z,1007.00
2023-04-18T02:26:51.651Z,1007.00
2023-04-18T02:27:51.719Z,1007.00
2023-04-18T02:28:51.812Z,1006.00
2023-04-18T02:29:51.871Z,1003.00
2023-04-18T02:30:51.957Z,999.00
2023-04-18T02:31:52.025Z,996.00
2023-04-18T02:32:52.158Z,995.00
2023-04-18T02:33:52.151Z,998.00
2023-04-18T02:34:52.223Z,996.00
2023-04-18T02:35:52.303Z,996.00
2023-04-18T02:36:52.358Z,996.00
2023-04-18T02:37:52.438Z,998.00
2023-04-18T02:38:52.512Z,998.00
2023-04-18T02:39:52.587Z,999.00
2023-04-18T02:40:52.681Z,996.00
2023-04-18T02:41:52.741Z,995.00
2023-04-18T02:42:52.814Z,995.00
2023-04-18T02:43:52.885Z,993.00
2023-04-18T02:44:52.959Z,994.00
2023-04-18T02:45:53.072Z,992.00
2023-04-18T02:46:53.098Z,995.00
2023-04-18T02:47:56.044Z,997.00
2023-04-18T02:48:53.166Z,996.00
2023-04-18T02:49:53.182Z,995.00
2023-04-18T02:50:53.195Z,995.00
2023-04-18T02:51:53.186Z,995.00
2023-04-18T02:52:53.208Z,993.00
2023-04-18T02:53:53.221Z,998.00
2023-04-18T02:54:53.232Z,1000.00
2023-04-18T02:55:53.251Z,999.00
2023-04-18T02:56:53.259Z,1001.00
2023-04-18T02:57:53.269Z,1002.00
2023-04-18T02:58:53.296Z,1003.00
2023-04-18T02:59:53.284Z,1004.00
2023-04-18T03:00:53.305Z,998.00
2023-04-18T03:01:53.337Z,1000.00
2023-04-18T03:02:53.548Z,999.00
2023-04-18T03:03:53.320Z,999.00
2023-04-18T03:04:53.345Z,1000.00
2023-04-18T03:05:53.346Z,996.00
2023-04-18T03:06:53.361Z,997.00
2023-04-18T03:07:53.380Z,997.00
2023-04-18T03:08:53.407Z,996.00
2023-04-18T03:09:53.428Z,996.00
2023-04-18T03:10:55.111Z,994.00
2023-04-18T03:11:53.439Z,993.00
2023-04-18T03:12:53.432Z,990.00
2023-04-18T03:13:53.435Z,989.00
2023-04-18T03:14:53.447Z,991.00
2023-04-18T03:15:53.484Z,987.00
2023-04-18T03:16:55.407Z,984.00
2023-04-18T03:17:53.496Z,982.00
2023-04-18T03:18:53.479Z,982.00
2023-04-18T03:19:53.499Z,983.00
2023-04-18T03:20:53.510Z,979.00
2023-04-18T03:21:53.517Z,978.00
2023-04-18T03:22:53.544Z,977.00
2023-04-18T03:23:53.614Z,977.00
2023-04-18T03:24:53.685Z,977.00
2023-04-18T03:25:53.747Z,978.00
2023-04-18T03:26:53.804Z,977.00
2023-04-18T03:27:53.884Z,978.00
2023-04-18T03:28:53.960Z,975.00
2023-04-18T03:29:54.023Z,977.00
2023-04-18T03:30:54.137Z,977.00
2023-04-18T03:31:54.161Z,978.00
2023-04-18T03:32:54.250Z,979.00
2023-04-18T03:33:54.284Z,978.00
2023-04-18T03:34:54.345Z,981.00
2023-04-18T03:35:54.422Z,979.00
2023-04-18T03:36:54.484Z,977.00
2023-04-18T03:37:54.556Z,978.00
2023-04-18T03:38:54.631Z,978.00
2023-04-18T03:39:54.707Z,978.00
2023-04-18T03:40:54.759Z,976.00
2023-04-18T03:41:54.842Z,977.00
2023-04-18T03:42:54.903Z,977.00
2023-04-18T03:43:54.970Z,977.00
2023-04-18T03:44:55.042Z,976.00
2023-04-18T03:45:55.132Z,977.00
2023-04-18T03:46:55.175Z,973.00
2023-04-18T03:47:55.276Z,973.00
2023-04-18T03:48:55.315Z,973.00
2023-04-18T03:49:55.382Z,974.00
2023-04-18T03:50:55.444Z,975.00
2023-04-18T03:51:55.518Z,975.00
2023-04-18T03:52:55.596Z,972.00
2023-04-18T03:53:55.652Z,971.00
2023-04-18T03:54:55.731Z,972.00
2023-04-18T03:55:55.787Z,971.00
2023-04-18T03:56:55.858Z,971.00
2023-04-18T03:57:55.922Z,971.00
2023-04-18T03:58:56.003Z,970.00
2023-04-18T03:59:56.073Z,971.00
2023-04-18T04:00:56.135Z,968.00
2023-04-18T04:01:56.290Z,969.00
2023-04-18T04:02:56.554Z,970.00
2023-04-18T04:03:56.403Z,969.00
2023-04-18T04:04:56.451Z,969.00
2023-04-18T04:05:56.491Z,971.00
2023-04-18T04:06:56.571Z,972.00
2023-04-18T04:07:56.611Z,969.00
2023-04-18T04:08:56.692Z,967.00
2023-04-18T04:09:56.766Z,969.00
2023-04-18T04:10:56.833Z,968.00
2023-04-18T04:11:56.907Z,967.00
2023-04-18T04:12:56.976Z,966.00
2023-04-18T04:13:57.041Z,971.00
2023-04-18T04:14:57.107Z,971.00
2023-04-18T04:15:57.244Z,971.00
2023-04-18T04:16:57.238Z,972.00
2023-04-18T04:17:57.361Z,969.00
2023-04-18T04:18:57.384Z,968.00
2023-04-18T04:19:57.438Z,967.00
2023-04-18T04:20:57.504Z,967.00
2023-04-18T04:21:57.594Z,967.00
2023-04-18T04:22:57.659Z,966.00
2023-04-18T04:23:57.719Z,964.00
2023-04-18T04:24:57.846Z,968.00
2023-04-18T04:25:57.864Z,967.00
2023-04-18T04:26:57.925Z,966.00
2023-04-18T04:27:57.998Z,969.00
2023-04-18T04:28:58.060Z,972.00
2023-04-18T04:29:58.139Z,973.00
2023-04-18T04:30:58.219Z,972.00
2023-04-18T04:31:58.298Z,973.00
2023-04-18T04:32:58.420Z,972.00
2023-04-18T04:33:58.418Z,971.00
2023-04-18T04:34:58.486Z,972.00
2023-04-18T04:35:58.554Z,971.00
2023-04-18T04:36:58.627Z,971.00
2023-04-18T04:37:58.693Z,973.00
2023-04-18T04:38:58.765Z,970.00
2023-04-18T04:39:58.833Z,969.00
2023-04-18T04:40:58.906Z,967.00
2023-04-18T04:41:58.977Z,966.00
2023-04-18T04:42:59.038Z,965.00
2023-04-18T04:43:59.108Z,962.00
2023-04-18T04:44:59.229Z,964.00
2023-04-18T04:45:59.252Z,962.00
2023-04-18T04:46:59.319Z,964.00
2023-04-18T04:47:59.452Z,966.00
2023-04-18T04:48:59.442Z,964.00
2023-04-18T04:49:59.513Z,964.00
2023-04-18T04:50:59.598Z,964.00
2023-04-18T04:52:01.403Z,963.00
2023-04-18T04:52:59.727Z,962.00
2023-04-18T04:53:59.793Z,964.00
2023-04-18T04:54:59.861Z,960.00
2023-04-18T04:55:59.920Z,963.00
2023-04-18T04:57:00.021Z,966.00
2023-04-18T04:58:00.053Z,964.00
2023-04-18T04:59:00.117Z,965.00
2023-04-18T05:00:00.208Z,963.00
2023-04-18T05:01:00.289Z,961.00
2023-04-18T05:02:00.353Z,960.00
2023-04-18T05:03:00.490Z,957.00
2023-04-18T05:04:00.488Z,961.00
2023-04-18T05:05:00.508Z,958.00
2023-04-18T05:06:00.558Z,956.00
2023-04-18T05:07:00.638Z,958.00
2023-04-18T05:08:00.715Z,957.00
2023-04-18T05:09:00.777Z,957.00
2023-04-18T05:10:00.860Z,956.00
2023-04-18T05:11:00.912Z,951.00
2023-04-18T05:12:00.969Z,951.00
2023-04-18T05:13:01.031Z,950.00
2023-04-18T05:14:01.094Z,952.00
2023-04-18T05:15:01.167Z,954.00
2023-04-18T05:16:01.287Z,956.00
2023-04-18T05:17:01.420Z,956.00
2023-04-18T05:18:01.439Z,955.00
2023-04-18T05:19:01.468Z,952.00
2023-04-18T05:20:01.534Z,951.00
2023-04-18T05:21:01.627Z,949.00
2023-04-18T05:22:01.639Z,949.00
2023-04-18T05:23:01.730Z,951.00
2023-04-18T05:24:01.776Z,958.00
2023-04-18T05:25:01.922Z,967.00
2023-04-18T05:26:01.911Z,973.00
2023-04-18T05:27:02.004Z,982.00
2023-04-18T05:28:02.047Z,1068.00
2023-04-18T05:29:02.183Z,1089.00
2023-04-18T05:30:02.172Z,1107.00
2023-04-18T05:31:02.291Z,1128.00
2023-04-18T05:32:02.281Z,1173.00
2023-04-18T05:33:02.415Z,1190.00
2023-04-18T05:34:02.397Z,1210.00
2023-04-18T05:35:02.450Z,1239.00
2023-04-18T05:36:02.503Z,1310.00
2023-04-18T05:37:02.543Z,1327.00
2023-04-18T05:38:02.584Z,1347.00
2023-04-18T05:39:02.626Z,1370.00
2023-04-18T05:40:02.844Z,1399.00
2023-04-18T05:41:02.717Z,1416.00
2023-04-18T05:42:03.640Z,1432.00
2023-04-18T05:43:02.768Z,1468.00
2023-04-18T05:44:05.697Z,1484.00
2023-04-18T05:45:02.823Z,1497.00
2023-04-18T05:46:02.859Z,1515.00
2023-04-18T05:47:02.825Z,1531.00
2023-04-18T05:48:02.892Z,1540.00
2023-04-18T05:49:02.845Z,1555.00
2023-04-18T05:50:02.870Z,1568.00
2023-04-18T05:51:02.868Z,1594.00
2023-04-18T05:52:02.896Z,1618.00
2023-04-18T05:53:02.887Z,1632.00
2023-04-18T05:54:02.892Z,1639.00
2023-04-18T05:55:02.927Z,1648.00
2023-04-18T05:56:02.918Z,1580.00
2023-04-18T05:57:04.505Z,1137.00
2023-04-18T05:58:02.932Z,1029.00
2023-04-18T05:59:02.940Z,1273.00
2023-04-18T06:00:02.957Z,1532.00
2023-04-18T06:01:02.977Z,1645.00
2023-04-18T06:02:03.024Z,1596.00
2023-04-18T06:03:03.136Z,1559.00
2023-04-18T06:04:03.238Z,1567.00
2023-04-18T06:05:03.308Z,1578.00
2023-04-18T06:06:03.109Z,1591.00
2023-04-18T06:07:03.020Z,1602.00
2023-04-18T06:08:03.032Z,1615.00
2023-04-18T06:09:03.040Z,1626.00
2023-04-18T06:10:03.056Z,1645.00
2023-04-18T06:11:03.042Z,1661.00
2023-04-18T06:12:03.047Z,1673.00
2023-04-18T06:13:03.046Z,1692.00
2023-04-18T06:14:03.059Z,1704.00
2023-04-18T06:15:03.057Z,1720.00
2023-04-18T06:16:03.088Z,1743.00
2023-04-18T06:17:03.062Z,1761.00
2023-04-18T06:18:03.151Z,1776.00
2023-04-18T06:19:03.050Z,1786.00
2023-04-18T06:20:03.036Z,1793.00
2023-04-18T06:21:03.048Z,1808.00
2023-04-18T06:22:03.034Z,1826.00
2023-04-18T06:23:03.028Z,1821.00
2023-04-18T06:24:03.053Z,1829.00
2023-04-18T06:25:03.040Z,1830.00
2023-04-18T06:26:03.050Z,1836.00
2023-04-18T06:27:03.663Z,1833.00
2023-04-18T06:28:03.078Z,1202.00
2023-04-18T06:29:03.088Z,917.00
2023-04-18T06:30:03.128Z,828.00
2023-04-18T06:31:03.162Z,921.00
2023-04-18T06:32:03.264Z,961.00
2023-04-18T06:33:03.885Z,1055.00
2023-04-18T06:34:03.274Z,1054.00
2023-04-18T06:35:03.324Z,1055.00
2023-04-18T06:36:03.343Z,1062.00
2023-04-18T06:37:03.430Z,1078.00
2023-04-18T06:38:03.505Z,1169.00
2023-04-18T06:39:03.601Z,1197.00
2023-04-18T06:40:03.664Z,1214.00
2023-04-18T06:41:03.736Z,1232.00
2023-04-18T06:42:03.790Z,1250.00
2023-04-18T06:43:04.586Z,1267.00
2023-04-18T06:44:04.616Z,1290.00
2023-04-18T06:45:03.955Z,1315.00
2023-04-18T06:46:04.029Z,1350.00
2023-04-18T06:47:04.027Z,1369.00
2023-04-18T06:48:04.202Z,1394.00
2023-04-18T06:49:04.089Z,1415.00
2023-04-18T06:50:04.140Z,1431.00
2023-04-18T06:51:04.137Z,1452.00
2023-04-18T06:52:04.167Z,1479.00
2023-04-18T06:53:04.181Z,1534.00
2023-04-18T06:54:04.196Z,1547.00
2023-04-18T06:55:04.220Z,1559.00
2023-04-18T06:56:04.235Z,1570.00
2023-04-18T06:57:04.236Z,1594.00
2023-04-18T06:58:04.238Z,1608.00
2023-04-18T06:59:04.267Z,1633.00
2023-04-18T07:00:04.250Z,1657.00
2023-04-18T07:01:04.293Z,1676.00
2023-04-18T07:02:04.346Z,1691.00
2023-04-18T07:03:04.464Z,1730.00
2023-04-18T07:04:04.357Z,1746.00
2023-04-18T07:05:04.704Z,1782.00
2023-04-18T07:06:04.343Z,1787.00
2023-04-18T07:07:04.346Z,1807.00
2023-04-18T07:08:04.362Z,1821.00
2023-04-18T07:09:04.412Z,1838.00
2023-04-18T07:10:04.477Z,1851.00
2023-04-18T07:11:04.513Z,1874.00
2023-04-18T07:12:04.564Z,1902.00
2023-04-18T07:13:04.618Z,1935.00
2023-04-18T07:14:04.698Z,1957.00
2023-04-18T07:15:04.742Z,1976.00
2023-04-18T07:16:04.793Z,1998.00
2023-04-18T07:17:04.903Z,2036.00
2023-04-18T07:18:04.913Z,2058.00
2023-04-18T07:19:04.929Z,2064.00
2023-04-18T07:20:04.964Z,2059.00
2023-04-18T07:21:05.015Z,2047.00
2023-04-18T07:22:05.059Z,2036.00
2023-04-18T07:23:05.686Z,2031.00
2023-04-18T07:24:05.680Z,2024.00
2023-04-18T07:25:05.248Z,2022.00
2023-04-18T07:26:05.263Z,2022.00
2023-04-18T07:27:05.316Z,2022.00
2023-04-18T07:28:06.103Z,2021.00
2023-04-18T07:29:06.110Z,2019.00
2023-04-18T07:30:05.521Z,2018.00
2023-04-18T07:31:05.559Z,2014.00
2023-04-18T07:32:06.903Z,2004.00
2023-04-18T07:33:05.904Z,1998.00
2023-04-18T07:34:06.181Z,1993.00
2023-04-18T07:35:05.927Z,1984.00
2023-04-18T07:36:05.988Z,1979.00
2023-04-18T07:37:06.138Z,1967.00
2023-04-18T07:38:06.085Z,1964.00
2023-04-18T07:39:06.140Z,1960.00
2023-04-18T07:40:06.186Z,1952.00
2023-04-18T07:41:06.242Z,1951.00
2023-04-18T07:42:06.333Z,1956.00
2023-04-18T07:43:06.322Z,1954.00
2023-04-18T07:44:06.380Z,1952.00
2023-04-18T07:45:06.444Z,1950.00
2023-04-18T07:46:06.529Z,1945.00
2023-04-18T07:47:06.534Z,1942.00
2023-04-18T07:48:06.618Z,1933.00
2023-04-18T07:49:06.672Z,1928.00
2023-04-18T07:50:06.709Z,1920.00
2023-04-18T07:51:06.771Z,1916.00
2023-04-18T07:52:06.882Z,1917.00
2023-04-18T07:53:06.921Z,1917.00
2023-04-18T07:54:06.933Z,1917.00
2023-04-18T07:55:06.978Z,1923.00
2023-04-18T07:56:07.041Z,1926.00
2023-04-18T07:57:07.096Z,1929.00
2023-04-18T07:58:07.149Z,1931.00
2023-04-18T07:59:07.232Z,1931.00
2023-04-18T08:00:07.323Z,1935.00
2023-04-18T08:01:07.326Z,1931.00
2023-04-18T08:02:07.420Z,1931.00
2023-04-18T08:03:07.685Z,1926.00
2023-04-18T08:04:07.741Z,1927.00
2023-04-18T08:05:07.698Z,1931.00
2023-04-18T08:06:07.624Z,1926.00
2023-04-18T08:07:07.656Z,1923.00
2023-04-18T08:08:07.684Z,1921.00
2023-04-18T08:09:07.751Z,1920.00
2023-04-18T08:10:07.796Z,1913.00
2023-04-18T08:11:07.855Z,1910.00
2023-04-18T08:12:07.900Z,1909.00
2023-04-18T08:13:07.947Z,1906.00
2023-04-18T08:14:08.000Z,1628.00
2023-04-18T08:15:08.005Z,1387.00
2023-04-18T08:16:08.068Z,1339.00
2023-04-18T08:17:08.030Z,1243.00
2023-04-18T08:18:08.069Z,1213.00
2023-04-18T08:19:08.086Z,1123.00
2023-04-18T08:20:08.206Z,1117.00
2023-04-18T08:21:08.176Z,1249.00
2023-04-18T08:22:08.205Z,1271.00
2023-04-18T08:23:10.530Z,1267.00
2023-04-18T08:24:08.185Z,1263.00
2023-04-18T08:25:08.196Z,1165.00
2023-04-18T08:26:08.191Z,1180.00
2023-04-18T08:27:08.188Z,1112.00
2023-04-18T08:28:09.193Z,1145.00
2023-04-18T08:29:08.717Z,1267.00
2023-04-18T08:30:08.175Z,1361.00
2023-04-18T08:31:08.219Z,1386.00
2023-04-18T08:32:09.264Z,1401.00
2023-04-18T08:33:08.230Z,1411.00
2023-04-18T08:34:08.173Z,1443.00
2023-04-18T08:35:08.170Z,1461.00
2023-04-18T08:36:08.170Z,1474.00
2023-04-18T08:37:08.164Z,1491.00
2023-04-18T08:38:08.148Z,1512.00
2023-04-18T08:39:08.144Z,1526.00
2023-04-18T08:40:08.145Z,1540.00
2023-04-18T08:41:08.280Z,1554.00
2023-04-18T08:42:08.126Z,1571.00
2023-04-18T08:43:08.129Z,1606.00
2023-04-18T08:44:08.131Z,1630.00
2023-04-18T08:45:08.121Z,1642.00
2023-04-18T08:46:08.148Z,1656.00
2023-04-18T08:47:08.097Z,1668.00
2023-04-18T08:48:08.168Z,1682.00
2023-04-18T08:49:09.676Z,1692.00
2023-04-18T08:50:08.146Z,1703.00
2023-04-18T08:51:08.139Z,1717.00
2023-04-18T08:52:08.113Z,1735.00
2023-04-18T08:53:08.097Z,1751.00
2023-04-18T08:54:08.082Z,1763.00
2023-04-18T08:55:08.101Z,1781.00
2023-04-18T08:56:08.071Z,1796.00
2023-04-18T08:57:08.053Z,1806.00
2023-04-18T08:58:08.105Z,1822.00
2023-04-18T08:59:08.025Z,1854.00
2023-04-18T09:00:08.044Z,1869.00
2023-04-18T09:01:08.102Z,1883.00
2023-04-18T09:02:08.056Z,1898.00
2023-04-18T09:03:08.098Z,1905.00
2023-04-18T09:04:08.007Z,1912.00
2023-04-18T09:05:07.968Z,1909.00
2023-04-18T09:06:07.984Z,1912.00
2023-04-18T09:07:07.941Z,1921.00
2023-04-18T09:08:07.914Z,1935.00
2023-04-18T09:09:07.911Z,1950.00
2023-04-18T09:10:07.906Z,1961.00
2023-04-18T09:11:07.878Z,1973.00
2023-04-18T09:12:07.872Z,1982.00
2023-04-18T09:13:07.885Z,1986.00
2023-04-18T09:14:07.861Z,1990.00
2023-04-18T09:15:07.834Z,1997.00
2023-04-18T09:16:07.841Z,2008.00
2023-04-18T09:17:07.900Z,2016.00
2023-04-18T09:18:07.833Z,1999.00
2023-04-18T09:19:07.788Z,1946.00
2023-04-18T09:20:07.780Z,1955.00
2023-04-18T09:21:07.777Z,1960.00
2023-04-18T09:22:07.758Z,1955.00
2023-04-18T09:23:07.752Z,1949.00
2023-04-18T09:24:07.740Z,1935.00
2023-04-18T09:25:08.652Z,1912.00
2023-04-18T09:26:07.709Z,1874.00
2023-04-18T09:27:07.687Z,1837.00
2023-04-18T09:28:07.688Z,1830.00
2023-04-18T09:29:07.668Z,1822.00
2023-04-18T09:30:07.690Z,1809.00
2023-04-18T09:31:07.678Z,1798.00
2023-04-18T09:32:07.638Z,1788.00
2023-04-18T09:33:07.756Z,1775.00
2023-04-18T09:34:07.628Z,1762.00
2023-04-18T09:35:07.640Z,1756.00
2023-04-18T09:36:07.609Z,1745.00
2023-04-18T09:37:07.664Z,1732.00
2023-04-18T09:38:07.618Z,1715.00
2023-04-18T09:39:07.677Z,1702.00
2023-04-18T09:40:07.724Z,1700.00
2023-04-18T09:41:07.803Z,1692.00
2023-04-18T09:42:07.851Z,1680.00
2023-04-18T09:43:07.883Z,1665.00
2023-04-18T09:44:07.937Z,1653.00
2023-04-18T09:45:08.082Z,1644.00
2023-04-18T09:46:08.082Z,1640.00
2023-04-18T09:47:08.098Z,1634.00
2023-04-18T09:48:08.199Z,1630.00
2023-04-18T09:49:10.432Z,1610.00
2023-04-18T09:50:08.260Z,1600.00
2023-04-18T09:51:08.183Z,1593.00
2023-04-18T09:52:08.166Z,1589.00
2023-04-18T09:53:08.139Z,1585.00
2023-04-18T09:54:08.126Z,1577.00
2023-04-18T09:55:08.120Z,1571.00
2023-04-18T09:56:08.109Z,1565.00
2023-04-18T09:57:08.106Z,1552.00
2023-04-18T09:58:08.766Z,1544.00
2023-04-18T09:59:08.095Z,1538.00
2023-04-18T10:00:08.076Z,1536.00
2023-04-18T10:01:08.505Z,1528.00
2023-04-18T10:02:08.365Z,1521.00
2023-04-18T10:03:08.244Z,1513.00
2023-04-18T10:04:08.164Z,1507.00
2023-04-18T10:05:08.138Z,1494.00
2023-04-18T10:06:08.082Z,1457.00
2023-04-18T10:07:08.034Z,1423.00
2023-04-18T10:08:08.028Z,1406.00
2023-04-18T10:09:08.016Z,1387.00
2023-04-18T10:10:08.029Z,1385.00
2023-04-18T10:11:08.007Z,1388.00
2023-04-18T10:12:08.008Z,1393.00
2023-04-18T10:13:08.044Z,1395.00
2023-04-18T10:14:08.023Z,1391.00
2023-04-18T10:15:09.087Z,1384.00
2023-04-18T10:16:08.032Z,1098.00
2023-04-18T10:17:07.996Z,1061.00
2023-04-18T10:18:08.007Z,860.00
2023-04-18T10:19:07.993Z,995.00
2023-04-18T10:20:08.006Z,1031.00
2023-04-18T10:21:07.988Z,1014.00
2023-04-18T10:22:09.677Z,1008.00
2023-04-18T10:23:08.002Z,1007.00
2023-04-18T10:24:07.997Z,1016.00
2023-04-18T10:25:08.000Z,1044.00
2023-04-18T10:26:08.019Z,1063.00
2023-04-18T10:27:08.069Z,1081.00
2023-04-18T10:28:08.011Z,1093.00
2023-04-18T10:29:08.011Z,1098.00
2023-04-18T10:30:09.086Z,1103.00
2023-04-18T10:31:08.035Z,1101.00
2023-04-18T10:32:08.020Z,1103.00
2023-04-18T10:33:18.265Z,1101.00
2023-04-18T10:34:09.003Z,1100.00
2023-04-18T10:35:08.025Z,1096.00
2023-04-18T10:36:08.011Z,1088.00
2023-04-18T10:37:07.991Z,1085.00
2023-04-18T10:38:07.983Z,1082.00
2023-04-18T10:39:07.985Z,1081.00
2023-04-18T10:40:08.033Z,1078.00
2023-04-18T10:41:07.984Z,1075.00
2023-04-18T10:42:07.976Z,1071.00
2023-04-18T10:43:07.992Z,1070.00
2023-04-18T10:44:08.758Z,1068.00
2023-04-18T10:45:08.053Z,1067.00
2023-04-18T10:46:14.366Z,1065.00
2023-04-18T10:47:09.154Z,1064.00
2023-04-18T10:48:08.176Z,1062.00
2023-04-18T10:49:08.161Z,1059.00
2023-04-18T10:50:08.116Z,1058.00
2023-04-18T10:51:08.109Z,1057.00
2023-04-18T10:52:08.110Z,1058.00
2023-04-18T10:53:08.099Z,1057.00
2023-04-18T10:54:08.103Z,1057.00
2023-04-18T10:55:08.133Z,1054.00
2023-04-18T10:56:08.279Z,1053.00
2023-04-18T10:57:08.251Z,1053.00
2023-04-18T10:58:08.286Z,1053.00
2023-04-18T10:59:08.356Z,1050.00
2023-04-18T11:00:08.424Z,1046.00
2023-04-18T11:01:08.529Z,1047.00
2023-04-18T11:02:08.593Z,1045.00
2023-04-18T11:03:08.763Z,1043.00
2023-04-18T11:04:08.800Z,1042.00
2023-04-18T11:05:08.821Z,1041.00
2023-04-18T11:06:08.817Z,1040.00
2023-04-18T11:07:08.883Z,1038.00
2023-04-18T11:08:08.930Z,1036.00
2023-04-18T11:09:08.990Z,1036.00
2023-04-18T11:10:09.013Z,1035.00
2023-04-18T11:11:09.069Z,1039.00
2023-04-18T11:12:09.081Z,1038.00
2023-04-18T11:13:09.069Z,1040.00
2023-04-18T11:14:09.097Z,1040.00
2023-04-18T11:15:09.096Z,1039.00
2023-04-18T11:16:09.114Z,1040.00
2023-04-18T11:17:09.146Z,1041.00
2023-04-18T11:18:09.277Z,1041.00
2023-04-18T11:19:09.230Z,1041.00
2023-04-18T11:20:09.346Z,1043.00
2023-04-18T11:21:09.378Z,1043.00
2023-04-18T11:22:09.411Z,1042.00
2023-04-18T11:23:09.450Z,1041.00
2023-04-18T11:24:09.503Z,1041.00
2023-04-18T11:25:09.561Z,1041.00
2023-04-18T11:26:09.621Z,1040.00
2023-04-18T11:27:09.692Z,1038.00
2023-04-18T11:28:09.729Z,1041.00
2023-04-18T11:29:09.793Z,1041.00
2023-04-18T11:30:09.871Z,1045.00
2023-04-18T11:31:09.906Z,1043.00
2023-04-18T11:32:09.954Z,1043.00
2023-04-18T11:33:10.007Z,1040.00
2023-04-18T11:34:09.978Z,1040.00
2023-04-18T11:35:10.016Z,1042.00
2023-04-18T11:36:10.005Z,1042.00
2023-04-18T11:37:10.049Z,1043.00
2023-04-18T11:38:10.006Z,1045.00
2023-04-18T11:39:09.994Z,1045.00
2023-04-18T11:40:09.989Z,1046.00
2023-04-18T11:41:10.037Z,1045.00
2023-04-18T11:42:10.066Z,1045.00
2023-04-18T11:43:10.060Z,1047.00
2023-04-18T11:44:10.085Z,1044.00
2023-04-18T11:45:10.125Z,1043.00
2023-04-18T11:46:10.138Z,1038.00
2023-04-18T11:47:10.132Z,1041.00
2023-04-18T11:48:10.174Z,1042.00
2023-04-18T11:49:10.164Z,1043.00
2023-04-18T11:50:10.164Z,1040.00
2023-04-18T11:51:10.187Z,1038.00
2023-04-18T11:52:10.184Z,1037.00
2023-04-18T11:53:10.287Z,1038.00
2023-04-18T11:54:10.240Z,1039.00
2023-04-18T11:55:10.249Z,1038.00
2023-04-18T11:56:10.233Z,1037.00
2023-04-18T11:57:10.239Z,1037.00
2023-04-18T11:58:10.242Z,1036.00
2023-04-18T11:59:10.261Z,1037.00
2023-04-18T12:00:10.334Z,1040.00
2023-04-18T12:01:10.342Z,1041.00
2023-04-18T12:03:13.299Z,1041.00
2023-04-18T12:04:10.498Z,1041.00
2023-04-18T12:05:10.544Z,1038.00
2023-04-18T12:06:10.449Z,1040.00
2023-04-18T12:07:10.337Z,1037.00
2023-04-18T12:08:10.329Z,1035.00
2023-04-18T12:09:10.324Z,1035.00
2023-04-18T12:10:10.316Z,1035.00
2023-04-18T12:11:10.325Z,1033.00
2023-04-18T12:12:10.319Z,1034.00
2023-04-18T12:13:10.313Z,1035.00